createdAt,value
2023-02-16T00:00:51.961Z,38.30
2023-02-16T00:03:37.214Z,36.20
2023-02-16T00:06:24.140Z,36.58
2023-02-16T00:09:09.297Z,38.15
2023-02-16T00:12:13.413Z,38.75
2023-02-16T00:14:58.495Z,36.40
2023-02-16T00:17:43.849Z,36.70
2023-02-16T00:20:32.007Z,35.45
2023-02-16T00:23:17.495Z,37.65
2023-02-16T00:26:03.162Z,33.13
2023-02-16T00:28:54.209Z,36.33
2023-02-16T00:31:39.940Z,35.25
2023-02-16T00:34:25.334Z,32.47
2023-02-16T00:37:13.821Z,33.75
2023-02-16T00:40:01.314Z,30.33
2023-02-16T00:42:48.057Z,37.40
2023-02-16T00:45:37.346Z,33.55
2023-02-16T00:48:23.632Z,33.90
2023-02-16T00:51:25.182Z,32.20
2023-02-16T00:54:11.453Z,36.42
2023-02-16T00:56:57.662Z,37.42
2023-02-16T00:59:43.093Z,39.13
2023-02-16T01:02:29.155Z,40.30
2023-02-16T01:05:15.303Z,32.25
2023-02-16T01:08:19.668Z,36.40
2023-02-16T01:11:09.904Z,33.83
2023-02-16T01:14:00.840Z,39.28
2023-02-16T01:16:46.064Z,34.25
2023-02-16T01:19:31.320Z,35.78
2023-02-16T01:22:17.173Z,34.95
2023-02-16T01:25:02.286Z,36.72
2023-02-16T01:27:48.574Z,37.88
2023-02-16T01:30:33.796Z,39.28
2023-02-16T01:33:20.283Z,33.35
2023-02-16T01:36:06.875Z,35.22
2023-02-16T01:38:52.258Z,38.08
2023-02-16T01:42:05.937Z,40.17
2023-02-16T01:45:01.762Z,44.67
2023-02-16T01:47:57.390Z,36.80
2023-02-16T01:51:11.873Z,41.50
2023-02-16T01:54:27.501Z,39.30
2023-02-16T01:57:18.683Z,36.97
2023-02-16T02:00:12.567Z,39.63
2023-02-16T02:03:24.599Z,35.25
2023-02-16T02:06:18.029Z,36.00
2023-02-16T02:09:10.548Z,36.78
2023-02-16T02:12:22.866Z,36.40
2023-02-16T02:15:09.253Z,34.38
2023-02-16T02:17:54.457Z,37.67
2023-02-16T02:21:36.406Z,32.90
2023-02-16T02:24:49.683Z,35.08
2023-02-16T02:27:40.219Z,35.58
2023-02-16T02:30:54.767Z,31.55
2023-02-16T02:34:04.008Z,29.85
2023-02-16T02:37:19.405Z,29.65
2023-02-16T02:40:13.580Z,32.33
2023-02-16T02:43:13.488Z,32.45
2023-02-16T02:46:18.999Z,30.48
2023-02-16T02:49:05.227Z,31.92
2023-02-16T02:51:51.249Z,28.92
2023-02-16T02:54:58.779Z,33.78
2023-02-16T02:58:14.163Z,36.38
2023-02-16T03:01:00.206Z,31.52
2023-02-16T03:03:53.900Z,31.88
2023-02-16T03:06:44.272Z,27.90
2023-02-16T03:09:29.626Z,31.85
2023-02-16T03:12:35.720Z,32.63
2023-02-16T03:15:23.916Z,27.85
2023-02-16T03:18:30.994Z,30.77
2023-02-16T03:21:34.841Z,30.88
2023-02-16T03:24:47.639Z,28.63
2023-02-16T03:27:57.887Z,33.35
2023-02-16T03:30:45.214Z,32.08
2023-02-16T03:33:31.296Z,30.73
2023-02-16T03:36:16.699Z,34.10
2023-02-16T03:39:03.208Z,29.75
2023-02-16T03:41:51.408Z,32.78
2023-02-16T03:44:36.769Z,31.92
2023-02-16T03:47:22.162Z,27.17
2023-02-16T03:50:08.267Z,29.70
2023-02-16T03:53:06.502Z,28.83
2023-02-16T03:55:51.669Z,27.35
2023-02-16T03:58:36.847Z,31.23
2023-02-16T04:01:22.702Z,29.55
2023-02-16T04:04:08.345Z,31.48
2023-02-16T04:06:53.773Z,27.95
2023-02-16T04:09:39.037Z,28.95
2023-02-16T04:12:36.462Z,27.33
2023-02-16T04:15:24.406Z,25.35
2023-02-16T04:18:09.925Z,30.25
2023-02-16T04:20:55.207Z,29.33
2023-02-16T04:23:40.731Z,29.58
2023-02-16T04:26:26.001Z,28.58
2023-02-16T04:29:11.124Z,33.80
2023-02-16T04:31:56.462Z,24.92
2023-02-16T04:34:41.682Z,29.55
2023-02-16T04:37:27.236Z,31.25
2023-02-16T04:40:14.245Z,25.70
2023-02-16T04:42:59.508Z,27.50
2023-02-16T04:45:44.630Z,30.95
2023-02-16T04:48:30.109Z,28.35
2023-02-16T04:51:15.288Z,29.92
2023-02-16T04:54:00.907Z,27.23
2023-02-16T04:56:47.063Z,26.77
2023-02-16T04:59:32.280Z,27.77
2023-02-16T05:02:17.716Z,29.05
2023-02-16T05:05:03.241Z,27.95
2023-02-16T05:07:49.175Z,26.73
2023-02-16T05:10:34.317Z,32.65
2023-02-16T05:13:38.340Z,28.27
2023-02-16T05:16:24.777Z,30.88
2023-02-16T05:19:10.153Z,31.33
2023-02-16T05:21:55.345Z,29.73
2023-02-16T05:24:41.194Z,31.02
2023-02-16T05:27:30.003Z,28.02
2023-02-16T05:30:15.490Z,29.83
2023-02-16T05:33:00.723Z,32.00
2023-02-16T05:35:45.998Z,30.63
2023-02-16T05:38:31.304Z,31.83
2023-02-16T05:41:25.796Z,30.45
2023-02-16T05:44:11.835Z,33.53
2023-02-16T05:46:57.114Z,29.83
2023-02-16T05:49:42.386Z,29.30
2023-02-16T05:52:27.702Z,28.33
2023-02-16T05:55:13.123Z,30.30
2023-02-16T05:57:58.431Z,28.38
2023-02-16T06:00:43.976Z,28.63
2023-02-16T06:03:29.180Z,29.88
2023-02-16T06:06:14.724Z,31.70
2023-02-16T06:09:01.304Z,30.20
2023-02-16T06:11:46.559Z,31.33
2023-02-16T06:14:31.815Z,33.78
2023-02-16T06:17:17.267Z,33.08
2023-02-16T06:20:03.252Z,33.95
2023-02-16T06:22:48.753Z,31.63
2023-02-16T06:25:34.461Z,35.80
2023-02-16T06:28:20.052Z,34.42
2023-02-16T06:31:05.577Z,33.67
2023-02-16T06:33:51.344Z,34.20
2023-02-16T06:36:36.436Z,28.77
2023-02-16T06:39:21.812Z,30.70
2023-02-16T06:42:07.131Z,29.75
2023-02-16T06:44:52.452Z,29.23
2023-02-16T06:47:38.424Z,33.28
2023-02-16T06:50:23.474Z,32.13
2023-02-16T06:53:09.071Z,35.95
2023-02-16T06:55:54.377Z,33.10
2023-02-16T06:58:39.443Z,34.88
2023-02-16T07:01:26.094Z,35.75
2023-02-16T07:04:11.755Z,33.92
2023-02-16T07:06:56.896Z,33.20
2023-02-16T07:09:42.270Z,30.05
2023-02-16T07:12:27.581Z,35.72
2023-02-16T07:15:13.200Z,30.83
2023-02-16T07:17:58.633Z,28.30
2023-02-16T07:20:44.283Z,35.30
2023-02-16T07:23:29.600Z,34.47
2023-02-16T07:26:14.955Z,35.03
2023-02-16T07:29:00.275Z,43.67
2023-02-16T07:31:45.918Z,34.35
2023-02-16T07:34:31.583Z,38.38
2023-02-16T07:37:16.831Z,38.45
2023-02-16T07:40:02.136Z,37.67
2023-02-16T07:42:48.015Z,34.28
2023-02-16T07:45:33.923Z,38.72
2023-02-16T07:48:19.830Z,40.25
2023-02-16T07:51:05.797Z,40.70
2023-02-16T07:53:51.359Z,43.65
2023-02-16T07:56:36.885Z,36.85
2023-02-16T07:59:22.434Z,38.22
2023-02-16T08:02:14.282Z,45.00
2023-02-16T08:05:00.343Z,39.13
2023-02-16T08:07:46.838Z,37.65
2023-02-16T08:10:32.576Z,43.92
2023-02-16T08:13:17.813Z,38.38
2023-02-16T08:16:08.238Z,36.50
2023-02-16T08:18:56.266Z,59.50
2023-02-16T08:21:41.947Z,90.60
2023-02-16T08:24:27.133Z,48.33
2023-02-16T08:27:12.552Z,48.42
2023-02-16T08:29:57.669Z,48.15
2023-02-16T08:32:43.546Z,45.13
2023-02-16T08:35:31.968Z,40.45
2023-02-16T08:38:17.472Z,44.42
2023-02-16T08:41:03.035Z,37.63
2023-02-16T08:43:49.285Z,44.13
2023-02-16T08:46:36.061Z,42.35
2023-02-16T08:49:23.677Z,45.60
2023-02-16T08:52:09.975Z,47.80
2023-02-16T08:54:55.493Z,45.45
2023-02-16T08:57:40.716Z,41.05
2023-02-16T09:00:34.896Z,40.95
2023-02-16T09:03:20.176Z,38.22
2023-02-16T09:06:06.336Z,39.10
2023-02-16T09:08:53.700Z,42.15
2023-02-16T09:11:39.374Z,45.90
2023-02-16T09:14:24.843Z,38.28
2023-02-16T09:17:09.877Z,42.08
2023-02-16T09:19:55.395Z,37.53
2023-02-16T09:25:35.833Z,39.15
2023-02-16T09:28:21.451Z,41.95
2023-02-16T09:31:14.417Z,44.22
2023-02-16T09:34:02.622Z,41.85
2023-02-16T09:36:48.699Z,39.95
2023-02-16T09:39:33.990Z,41.00
2023-02-16T09:42:33.985Z,42.92
2023-02-16T09:45:21.436Z,39.80
2023-02-16T09:48:23.012Z,48.30
2023-02-16T09:51:11.495Z,44.17
2023-02-16T09:54:04.193Z,42.33
2023-02-16T09:56:56.974Z,44.05
2023-02-16T10:00:04.507Z,44.25
2023-02-16T10:03:09.341Z,43.45
2023-02-16T10:06:14.495Z,45.05
2023-02-16T10:09:11.382Z,51.20
2023-02-16T10:12:11.008Z,44.78
2023-02-16T10:15:13.980Z,46.47
2023-02-16T10:18:22.860Z,48.10
2023-02-16T10:21:17.718Z,52.13
2023-02-16T10:24:07.628Z,46.33
2023-02-16T10:27:08.216Z,44.60
2023-02-16T10:29:54.921Z,53.97
2023-02-16T10:32:55.382Z,44.50
2023-02-16T10:35:47.530Z,43.90
2023-02-16T10:39:20.309Z,42.75
2023-02-16T10:42:21.429Z,45.95
2023-02-16T10:45:21.155Z,48.60
2023-02-16T10:48:06.442Z,48.20
2023-02-16T10:51:00.897Z,47.80
2023-02-16T10:53:50.406Z,50.25
2023-02-16T10:56:38.792Z,53.17
2023-02-16T10:59:31.618Z,47.55
2023-02-16T11:02:25.266Z,44.95
2023-02-16T11:05:32.168Z,48.80
2023-02-16T11:08:20.524Z,49.40
2023-02-16T11:11:10.145Z,53.63
2023-02-16T11:14:03.315Z,46.30
2023-02-16T11:17:04.094Z,44.75
2023-02-16T11:20:05.488Z,49.95
2023-02-16T11:22:51.614Z,46.83
2023-02-16T11:25:38.046Z,47.78
2023-02-16T11:28:33.743Z,49.63
2023-02-16T11:31:33.534Z,57.97
2023-02-16T11:34:31.651Z,58.22
2023-02-16T11:37:25.378Z,42.92
2023-02-16T11:40:22.429Z,48.05
2023-02-16T11:43:17.833Z,49.67
2023-02-16T11:46:07.942Z,47.13
2023-02-16T11:48:53.726Z,44.88
2023-02-16T11:51:38.902Z,49.47
2023-02-16T11:54:24.390Z,47.83
2023-02-16T11:57:15.680Z,45.00
2023-02-16T12:00:09.138Z,49.75
2023-02-16T12:03:24.980Z,49.50
2023-02-16T12:06:59.919Z,47.05
2023-02-16T12:09:57.767Z,44.17
2023-02-16T12:13:20.360Z,50.55
2023-02-16T12:16:34.596Z,48.60
2023-02-16T12:19:46.189Z,44.10
2023-02-16T12:22:48.736Z,44.95
2023-02-16T12:25:52.986Z,49.33
2023-02-16T12:28:45.851Z,46.28
2023-02-16T12:31:47.672Z,47.55
2023-02-16T12:34:52.226Z,41.78
2023-02-16T12:37:53.980Z,47.97
2023-02-16T12:41:11.446Z,43.28
2023-02-16T12:44:02.876Z,43.72
2023-02-16T12:46:56.826Z,42.90
2023-02-16T12:50:00.966Z,48.75
2023-02-16T12:52:53.978Z,44.85
2023-02-16T12:55:56.043Z,51.50
2023-02-16T12:59:00.443Z,42.83
2023-02-16T13:01:48.194Z,48.47
2023-02-16T13:04:50.438Z,49.10
2023-02-16T13:07:37.289Z,47.72
2023-02-16T13:11:00.135Z,41.10
2023-02-16T13:13:47.769Z,42.08
2023-02-16T13:16:51.953Z,44.33
2023-02-16T13:19:36.809Z,41.78
2023-02-16T13:22:52.920Z,43.90
2023-02-16T13:26:22.742Z,37.70
2023-02-16T13:29:47.587Z,43.17
2023-02-16T13:32:56.692Z,40.40
2023-02-16T13:36:03.433Z,41.58
2023-02-16T13:39:00.665Z,47.67
2023-02-16T13:41:57.434Z,39.78
2023-02-16T13:44:47.772Z,44.53
2023-02-16T13:47:38.453Z,46.53
2023-02-16T13:50:28.270Z,35.53
2023-02-16T13:56:22.511Z,37.22
2023-02-16T13:59:17.315Z,38.75
2023-02-16T14:02:03.377Z,36.92
2023-02-16T14:04:50.445Z,34.63
2023-02-16T14:07:38.276Z,41.88
2023-02-16T14:10:55.858Z,36.88
2023-02-16T14:13:47.169Z,40.65
2023-02-16T14:16:34.521Z,44.00
2023-02-16T14:19:25.828Z,43.67
2023-02-16T14:22:12.224Z,40.90
2023-02-16T14:25:01.093Z,41.35
2023-02-16T14:28:05.602Z,36.70
2023-02-16T14:30:56.871Z,43.35
2023-02-16T14:34:15.604Z,42.78
2023-02-16T14:37:16.297Z,40.58
2023-02-16T14:40:48.271Z,37.35
2023-02-16T14:43:40.744Z,46.00
2023-02-16T14:46:52.094Z,41.47
2023-02-16T14:50:09.307Z,40.38
2023-02-16T14:53:13.164Z,41.35
2023-02-16T14:56:26.717Z,41.45
2023-02-16T14:59:33.104Z,39.55
2023-02-16T15:02:33.821Z,39.53
2023-02-16T15:05:29.646Z,43.80
2023-02-16T15:08:23.308Z,37.13
2023-02-16T15:11:23.016Z,39.83
2023-02-16T15:14:11.029Z,40.10
2023-02-16T15:16:57.907Z,41.28
2023-02-16T15:19:44.129Z,36.58
2023-02-16T15:22:29.827Z,39.88
2023-02-16T15:25:29.338Z,35.25
2023-02-16T15:28:25.892Z,36.45
2023-02-16T15:31:24.007Z,44.25
2023-02-16T15:34:26.288Z,38.80
2023-02-16T15:37:28.663Z,35.55
2023-02-16T15:40:25.468Z,37.10
2023-02-16T15:43:19.548Z,35.80
2023-02-16T15:46:08.100Z,32.78
2023-02-16T15:48:54.571Z,38.25
2023-02-16T15:51:41.445Z,36.13
2023-02-16T15:54:30.626Z,41.80
2023-02-16T15:57:38.051Z,41.75
2023-02-16T16:00:24.918Z,34.72
2023-02-16T16:03:15.602Z,41.13
2023-02-16T16:06:06.401Z,37.97
2023-02-16T16:08:51.941Z,37.50
2023-02-16T16:11:37.793Z,35.45
2023-02-16T16:14:24.247Z,41.22
2023-02-16T16:17:13.918Z,37.20
2023-02-16T16:20:24.555Z,41.92
2023-02-16T16:23:16.445Z,38.60
2023-02-16T16:26:01.708Z,43.17
2023-02-16T16:28:47.583Z,44.28
2023-02-16T16:31:38.492Z,38.40
2023-02-16T16:34:38.924Z,41.47
2023-02-16T16:37:29.188Z,34.00
2023-02-16T16:40:26.337Z,36.65
2023-02-16T16:43:18.757Z,36.22
2023-02-16T16:46:20.136Z,41.92
2023-02-16T16:49:15.731Z,38.40
2023-02-16T16:52:00.819Z,47.42
2023-02-16T16:54:48.912Z,35.15
2023-02-16T16:57:33.940Z,37.75
2023-02-16T17:00:20.789Z,35.47
2023-02-16T17:03:08.331Z,39.97
2023-02-16T17:05:53.531Z,42.42
2023-02-16T17:08:38.953Z,42.35
2023-02-16T17:11:24.407Z,39.88
2023-02-16T17:14:20.779Z,59.20
2023-02-16T17:17:08.622Z,68.35
2023-02-16T17:19:54.149Z,68.38
2023-02-16T17:22:39.565Z,70.93
2023-02-16T17:25:24.646Z,64.28
2023-02-16T17:28:11.810Z,55.42
2023-02-16T17:30:57.474Z,54.78
2023-02-16T17:33:43.026Z,47.00
2023-02-16T17:36:28.749Z,43.17
2023-02-16T17:39:14.116Z,39.95
2023-02-16T17:42:00.484Z,38.55
2023-02-16T17:44:45.897Z,43.33
2023-02-16T17:47:56.236Z,39.53
2023-02-16T17:50:41.713Z,40.60
2023-02-16T17:53:27.790Z,44.75
2023-02-16T17:56:15.539Z,40.55
2023-02-16T17:59:01.074Z,36.38
2023-02-16T18:01:46.637Z,43.95
2023-02-16T18:04:34.089Z,44.22
2023-02-16T18:07:19.674Z,40.15
2023-02-16T18:10:05.858Z,39.25
2023-02-16T18:12:51.094Z,46.97
2023-02-16T18:15:36.513Z,40.65
2023-02-16T18:18:21.968Z,39.95
2023-02-16T18:21:07.502Z,41.88
2023-02-16T18:23:52.997Z,39.60
2023-02-16T18:26:38.190Z,40.95
2023-02-16T18:29:23.660Z,42.63
2023-02-16T18:32:09.026Z,37.97
2023-02-16T18:34:54.505Z,42.45
2023-02-16T18:37:39.832Z,43.45
2023-02-16T18:40:25.224Z,39.05
2023-02-16T18:43:11.414Z,41.55
2023-02-16T18:45:56.750Z,41.38
2023-02-16T18:48:41.972Z,39.70
2023-02-16T18:51:29.312Z,32.75
2023-02-16T18:54:14.652Z,39.03
2023-02-16T18:56:59.995Z,39.17
2023-02-16T18:59:45.253Z,39.33
2023-02-16T19:02:30.454Z,44.53
2023-02-16T19:05:15.834Z,38.97
2023-02-16T19:08:01.391Z,38.83
2023-02-16T19:10:49.932Z,37.78
2023-02-16T19:13:35.165Z,46.42
2023-02-16T19:16:20.466Z,40.90
2023-02-16T19:19:06.929Z,37.97
2023-02-16T19:21:52.073Z,37.78
2023-02-16T19:24:37.444Z,41.25
2023-02-16T19:27:23.280Z,40.50
2023-02-16T19:30:09.380Z,35.50
